createdAt,value
2023-04-08T00:00:50.107Z,29.20
2023-04-08T00:03:21.910Z,30.08
2023-04-08T00:05:51.221Z,28.98
2023-04-08T00:08:19.749Z,29.70
2023-04-08T00:10:48.894Z,31.83
2023-04-08T00:13:21.177Z,29.70
2023-04-08T00:15:49.678Z,30.23
2023-04-08T00:18:18.281Z,29.38
2023-04-08T00:20:47.414Z,28.92
2023-04-08T00:23:15.853Z,29.42
2023-04-08T00:25:44.048Z,28.27
2023-04-08T00:28:16.722Z,26.70
2023-04-08T00:30:45.901Z,26.13
2023-04-08T00:33:13.964Z,26.88
2023-04-08T00:35:43.389Z,25.05
2023-04-08T00:38:12.525Z,24.73
2023-04-08T00:40:40.493Z,24.95
2023-04-08T00:43:08.610Z,26.48
2023-04-08T00:45:42.463Z,25.65
2023-04-08T00:48:11.055Z,24.13
2023-04-08T00:50:41.268Z,26.23
2023-04-08T00:53:30.829Z,24.15
2023-04-08T00:56:01.659Z,25.08
2023-04-08T00:58:30.779Z,21.13
2023-04-08T01:01:23.337Z,22.88
2023-04-08T01:04:03.142Z,25.52
2023-04-08T01:07:11.899Z,30.38
2023-04-08T01:09:49.245Z,30.42
2023-04-08T01:12:21.477Z,32.78
2023-04-08T01:14:51.252Z,34.75
2023-04-08T01:17:19.250Z,32.60
2023-04-08T01:19:48.018Z,33.45
2023-04-08T01:22:30.924Z,33.40
2023-04-08T01:25:10.024Z,31.15
2023-04-08T01:27:38.596Z,32.95
2023-04-08T01:30:08.712Z,31.20
2023-04-08T01:32:38.260Z,34.65
2023-04-08T01:35:06.526Z,32.72
2023-04-08T01:37:54.600Z,32.72
2023-04-08T01:40:24.538Z,37.78
2023-04-08T01:42:55.080Z,30.48
2023-04-08T01:45:24.872Z,30.52
2023-04-08T01:47:53.129Z,28.65
2023-04-08T01:50:21.209Z,31.98
2023-04-08T01:52:50.059Z,30.25
2023-04-08T01:55:21.815Z,32.53
2023-04-08T01:57:51.585Z,28.50
2023-04-08T02:00:21.484Z,23.67
2023-04-08T02:02:50.217Z,22.42
2023-04-08T02:05:18.877Z,21.55
2023-04-08T02:07:48.935Z,20.98
2023-04-08T02:10:17.235Z,20.17
2023-04-08T02:12:45.875Z,19.55
2023-04-08T02:15:14.168Z,17.67
2023-04-08T02:18:09.358Z,18.00
2023-04-08T02:20:40.517Z,17.05
2023-04-08T02:23:19.096Z,17.33
2023-04-08T02:25:47.417Z,17.60
2023-04-08T02:28:16.079Z,19.08
2023-04-08T02:30:53.487Z,18.58
2023-04-08T02:33:23.690Z,17.92
2023-04-08T02:35:57.633Z,18.58
2023-04-08T02:38:34.189Z,19.67
2023-04-08T02:41:02.393Z,19.17
2023-04-08T02:43:33.726Z,18.20
2023-04-08T02:46:07.539Z,20.92
2023-04-08T02:48:38.697Z,20.83
2023-04-08T02:51:06.844Z,26.92
2023-04-08T02:53:37.652Z,23.05
2023-04-08T02:56:07.579Z,22.48
2023-04-08T02:58:36.811Z,21.63
2023-04-08T03:01:05.690Z,21.30
2023-04-08T03:03:40.780Z,21.58
2023-04-08T03:06:09.201Z,20.80
2023-04-08T03:08:37.400Z,20.60
2023-04-08T03:11:07.730Z,20.15
2023-04-08T03:13:36.300Z,18.98
2023-04-08T03:16:04.791Z,18.88
2023-04-08T03:18:34.700Z,18.65
2023-04-08T03:21:04.465Z,19.38
2023-04-08T03:23:34.393Z,18.80
2023-04-08T03:26:03.971Z,20.35
2023-04-08T03:28:32.307Z,20.10
2023-04-08T03:31:03.569Z,19.38
2023-04-08T03:33:32.509Z,17.98
2023-04-08T03:36:00.478Z,18.40
2023-04-08T03:38:28.577Z,17.90
2023-04-08T03:40:57.798Z,17.63
2023-04-08T03:43:27.763Z,16.85
2023-04-08T03:45:57.022Z,17.83
2023-04-08T03:48:25.582Z,16.65
2023-04-08T03:50:55.684Z,17.85
2023-04-08T03:53:24.022Z,16.75
2023-04-08T03:55:52.115Z,17.35
2023-04-08T03:58:20.219Z,17.77
2023-04-08T04:00:48.582Z,16.80
2023-04-08T04:03:17.721Z,16.00
2023-04-08T04:05:46.513Z,16.30
2023-04-08T04:08:17.980Z,17.10
2023-04-08T04:10:47.021Z,15.77
2023-04-08T04:13:17.006Z,19.90
2023-04-08T04:15:45.692Z,17.23
2023-04-08T04:18:13.681Z,16.73
2023-04-08T04:20:44.843Z,16.17
2023-04-08T04:23:13.042Z,16.77
2023-04-08T04:25:44.542Z,15.88
2023-04-08T04:28:17.049Z,16.15
2023-04-08T04:30:47.436Z,17.38
2023-04-08T04:33:16.717Z,17.55
2023-04-08T04:35:47.084Z,16.83
2023-04-08T04:38:16.581Z,18.40
2023-04-08T04:40:49.057Z,17.88
2023-04-08T04:43:17.760Z,17.13
2023-04-08T04:45:47.585Z,16.45
2023-04-08T04:48:17.004Z,15.73
2023-04-08T04:50:46.061Z,15.85
2023-04-08T04:53:20.551Z,14.98
2023-04-08T04:55:51.483Z,14.52
2023-04-08T04:58:20.010Z,14.15
2023-04-08T05:00:49.501Z,12.82
2023-04-08T05:03:19.675Z,14.45
2023-04-08T05:05:56.407Z,13.52
2023-04-08T05:08:27.712Z,13.23
2023-04-08T05:10:56.632Z,12.00
2023-04-08T05:13:28.492Z,11.45
2023-04-08T05:15:58.997Z,11.82
2023-04-08T05:18:28.535Z,11.63
2023-04-08T05:20:58.747Z,10.63
2023-04-08T05:23:28.829Z,10.82
2023-04-08T05:25:57.195Z,10.25
2023-04-08T05:28:29.184Z,10.55
2023-04-08T05:30:57.754Z,10.25
2023-04-08T05:33:26.811Z,8.95
2023-04-08T05:36:00.740Z,9.18
2023-04-08T05:38:29.624Z,8.57
2023-04-08T05:40:58.112Z,8.13
2023-04-08T05:43:26.261Z,8.43
2023-04-08T05:45:55.762Z,8.38
2023-04-08T05:48:24.428Z,7.70
2023-04-08T05:50:52.914Z,8.10
2023-04-08T05:53:22.303Z,7.28
2023-04-08T05:55:51.659Z,7.68
2023-04-08T05:58:19.910Z,7.03
2023-04-08T06:00:51.684Z,7.32
2023-04-08T06:03:21.002Z,6.43
2023-04-08T06:05:49.981Z,7.97
2023-04-08T06:08:19.847Z,7.68
2023-04-08T06:10:51.530Z,7.72
2023-04-08T06:13:22.080Z,7.53
2023-04-08T06:15:52.469Z,7.75
2023-04-08T06:18:23.321Z,8.48
2023-04-08T06:20:51.321Z,8.20
2023-04-08T06:23:19.193Z,7.93
2023-04-08T06:25:47.940Z,7.85
2023-04-08T06:28:19.715Z,7.63
2023-04-08T06:30:49.263Z,8.68
2023-04-08T06:33:18.373Z,8.63
2023-04-08T06:35:46.977Z,8.27
2023-04-08T06:38:16.678Z,9.18
2023-04-08T06:40:44.808Z,8.20
2023-04-08T06:43:13.126Z,7.75
2023-04-08T06:45:43.132Z,6.55
2023-04-08T06:48:12.405Z,6.00
2023-04-08T06:50:43.070Z,5.93
2023-04-08T06:53:11.147Z,6.07
2023-04-08T06:55:42.209Z,6.57
2023-04-08T06:58:13.889Z,6.30
2023-04-08T07:00:42.592Z,7.05
2023-04-08T07:03:14.373Z,6.22
2023-04-08T07:05:43.257Z,5.70
2023-04-08T07:08:11.681Z,7.47
2023-04-08T07:10:40.907Z,6.82
2023-04-08T07:13:12.799Z,6.70
2023-04-08T07:15:45.350Z,6.78
2023-04-08T07:18:14.015Z,6.53
2023-04-08T07:20:42.771Z,5.85
2023-04-08T07:23:13.597Z,5.80
2023-04-08T07:25:43.304Z,6.50
2023-04-08T07:28:11.538Z,5.63
2023-04-08T07:30:41.579Z,4.97
2023-04-08T07:33:35.418Z,5.40
2023-04-08T07:36:07.051Z,5.95
2023-04-08T07:38:36.849Z,6.40
2023-04-08T07:41:04.910Z,5.78
2023-04-08T07:43:34.838Z,5.80
2023-04-08T07:46:03.622Z,6.80
2023-04-08T07:48:34.106Z,6.00
2023-04-08T07:51:11.068Z,5.70
2023-04-08T07:53:41.360Z,5.78
2023-04-08T07:56:15.781Z,6.75
2023-04-08T07:58:44.230Z,8.23
2023-04-08T08:01:23.126Z,6.03
2023-04-08T08:03:55.733Z,5.88
2023-04-08T08:06:32.374Z,6.30
2023-04-08T08:09:02.112Z,5.90
2023-04-08T08:11:30.538Z,6.38
2023-04-08T08:14:08.127Z,6.35
2023-04-08T08:16:38.920Z,5.95
2023-04-08T08:19:08.906Z,6.60
2023-04-08T08:21:46.961Z,7.47
2023-04-08T08:24:16.917Z,7.80
2023-04-08T08:26:48.569Z,9.02
2023-04-08T08:29:17.969Z,8.27
2023-04-08T08:31:46.485Z,7.45
2023-04-08T08:35:24.028Z,7.25
2023-04-08T08:38:57.501Z,8.30
2023-04-08T08:42:16.227Z,9.63
2023-04-08T08:45:09.465Z,12.48
2023-04-08T08:47:37.827Z,13.13
2023-04-08T08:50:06.270Z,13.68
2023-04-08T08:52:34.725Z,13.55
2023-04-08T08:55:21.865Z,12.57
2023-04-08T08:57:55.641Z,11.07
2023-04-08T09:00:42.519Z,9.25
2023-04-08T09:03:16.830Z,6.78
2023-04-08T09:05:59.570Z,6.93
2023-04-08T09:08:31.556Z,8.73
2023-04-08T09:11:18.679Z,8.23
2023-04-08T09:13:51.180Z,8.38
2023-04-08T09:16:20.720Z,8.05
2023-04-08T09:18:50.023Z,7.78
2023-04-08T09:21:21.004Z,8.50
2023-04-08T09:23:53.278Z,8.07
2023-04-08T09:26:26.976Z,7.75
2023-04-08T09:29:24.904Z,7.10
2023-04-08T09:31:56.608Z,8.20
2023-04-08T09:34:28.879Z,8.90
2023-04-08T09:36:57.938Z,7.53
2023-04-08T09:39:26.177Z,8.20
2023-04-08T09:41:54.634Z,7.95
2023-04-08T09:44:26.793Z,8.68
2023-04-08T09:47:11.718Z,7.32
2023-04-08T09:49:55.413Z,6.47
2023-04-08T09:52:26.635Z,7.40
2023-04-08T09:55:26.285Z,7.50
2023-04-08T09:58:05.700Z,6.95
2023-04-08T10:00:38.985Z,6.78
2023-04-08T10:03:11.761Z,6.18
2023-04-08T10:05:44.472Z,6.88
2023-04-08T10:08:17.640Z,6.72
2023-04-08T10:15:35.206Z,6.50
2023-04-08T10:18:40.636Z,7.07
2023-04-08T10:21:43.819Z,7.60
2023-04-08T10:24:27.859Z,7.45
2023-04-08T10:27:25.013Z,8.40
2023-04-08T10:29:53.381Z,7.88
2023-04-08T10:32:32.276Z,7.82
2023-04-08T10:35:01.051Z,8.40
2023-04-08T10:38:00.267Z,7.93
2023-04-08T10:40:28.706Z,7.82
2023-04-08T10:43:07.113Z,7.97
2023-04-08T10:46:12.190Z,8.20
2023-04-08T10:49:03.620Z,7.10
2023-04-08T10:51:49.012Z,8.73
2023-04-08T10:54:27.860Z,7.53
2023-04-08T10:56:57.738Z,6.35
2023-04-08T10:59:37.975Z,6.68
2023-04-08T11:02:16.977Z,7.38
2023-04-08T11:04:45.080Z,6.72
2023-04-08T11:07:45.675Z,7.10
2023-04-08T11:10:13.624Z,7.15
2023-04-08T11:12:41.559Z,5.93
2023-04-08T11:15:10.761Z,7.00
2023-04-08T11:17:39.924Z,5.75
2023-04-08T11:20:14.384Z,5.32
2023-04-08T11:22:44.087Z,5.30
2023-04-08T11:25:12.269Z,5.68
2023-04-08T11:27:43.030Z,6.60
2023-04-08T11:30:13.439Z,6.40
2023-04-08T11:32:42.521Z,6.07
2023-04-08T11:35:11.068Z,6.10
2023-04-08T11:37:48.107Z,6.97
2023-04-08T11:40:42.809Z,7.60
2023-04-08T11:43:15.447Z,6.93
2023-04-08T11:45:43.727Z,7.25
2023-04-08T11:48:16.624Z,6.10
2023-04-08T11:50:47.052Z,6.82
2023-04-08T11:53:22.338Z,6.80
2023-04-08T11:55:50.419Z,6.38
2023-04-08T11:58:19.732Z,6.03
2023-04-08T12:00:51.038Z,4.10
2023-04-08T12:03:28.097Z,4.68
2023-04-08T12:06:04.601Z,10.77
2023-04-08T12:08:33.490Z,9.15
2023-04-08T12:11:13.188Z,8.23
2023-04-08T12:13:46.371Z,10.68
2023-04-08T12:16:15.223Z,12.10
2023-04-08T12:18:44.162Z,8.35
2023-04-08T12:21:12.586Z,7.70
2023-04-08T12:23:40.384Z,5.38
2023-04-08T12:26:09.188Z,4.40
2023-04-08T12:28:38.145Z,4.55
2023-04-08T12:31:06.838Z,4.53
2023-04-08T12:33:39.864Z,4.30
2023-04-08T12:36:08.468Z,4.88
2023-04-08T12:38:39.885Z,5.13
2023-04-08T12:41:09.967Z,6.50
2023-04-08T12:43:39.406Z,7.05
2023-04-08T12:46:14.488Z,7.85
2023-04-08T12:48:45.265Z,10.65
2023-04-08T12:51:15.986Z,10.43
2023-04-08T12:53:49.383Z,7.22
2023-04-08T12:56:18.707Z,6.60
2023-04-08T12:58:52.948Z,6.40
2023-04-08T13:01:21.653Z,6.38
2023-04-08T13:03:51.905Z,6.53
2023-04-08T13:06:22.283Z,6.82
2023-04-08T13:08:54.805Z,7.72
2023-04-08T13:11:22.916Z,7.75
2023-04-08T13:13:53.731Z,12.30
2023-04-08T13:16:23.602Z,11.07
2023-04-08T13:18:58.233Z,10.50
2023-04-08T13:21:29.850Z,7.80
2023-04-08T13:23:58.610Z,8.05
2023-04-08T13:26:26.764Z,7.15
2023-04-08T13:29:00.040Z,7.63
2023-04-08T13:31:29.922Z,8.23
2023-04-08T13:33:58.496Z,9.18
2023-04-08T13:36:31.630Z,11.98
2023-04-08T13:39:00.038Z,12.07
2023-04-08T13:41:28.612Z,11.90
2023-04-08T13:43:58.648Z,12.00
2023-04-08T13:46:27.646Z,10.20
2023-04-08T13:48:56.137Z,10.50
2023-04-08T13:51:24.580Z,9.38
2023-04-08T13:53:53.729Z,8.43
2023-04-08T13:56:22.630Z,9.43
2023-04-08T13:58:57.155Z,9.02
2023-04-08T14:01:25.976Z,9.00
2023-04-08T14:03:54.081Z,8.23
2023-04-08T14:06:22.238Z,7.90
2023-04-08T14:08:51.082Z,8.10
2023-04-08T14:11:20.660Z,7.90
2023-04-08T14:13:50.541Z,7.80
2023-04-08T14:16:18.911Z,6.55
2023-04-08T14:18:46.912Z,7.88
2023-04-08T14:21:16.294Z,7.68
2023-04-08T14:23:45.442Z,7.35
2023-04-08T14:26:14.626Z,7.05
2023-04-08T14:28:44.824Z,7.43
2023-04-08T14:31:15.624Z,7.43
2023-04-08T14:33:45.513Z,7.43
2023-04-08T14:36:14.278Z,7.30
2023-04-08T14:38:42.907Z,6.80
2023-04-08T14:41:11.477Z,6.97
2023-04-08T14:43:41.973Z,6.95
2023-04-08T14:46:10.247Z,6.65
2023-04-08T14:48:38.842Z,7.43
2023-04-08T14:51:07.202Z,7.20
2023-04-08T14:53:55.197Z,7.43
2023-04-08T14:56:25.258Z,7.15
2023-04-08T14:58:55.835Z,6.40
2023-04-08T15:01:25.897Z,6.80
2023-04-08T15:03:53.917Z,6.97
2023-04-08T15:06:23.733Z,6.72
2023-04-08T15:08:53.788Z,6.00
2023-04-08T15:11:33.312Z,5.90
2023-04-08T15:16:37.303Z,7.53
2023-04-08T15:19:06.689Z,5.90
2023-04-08T15:21:34.634Z,5.93
2023-04-08T15:24:02.748Z,7.57
2023-04-08T15:26:31.213Z,6.10
2023-04-08T15:28:59.970Z,10.77
2023-04-08T15:31:31.628Z,6.75
2023-04-08T15:34:03.814Z,6.63
2023-04-08T15:36:32.425Z,6.35
2023-04-08T15:39:02.500Z,6.50
2023-04-08T15:41:32.531Z,6.55
2023-04-08T15:44:01.341Z,6.25
2023-04-08T15:46:29.504Z,5.88
2023-04-08T15:49:00.265Z,6.45
2023-04-08T15:51:33.521Z,5.40
2023-04-08T15:54:01.673Z,5.82
2023-04-08T15:56:33.931Z,6.38
2023-04-08T15:59:03.497Z,5.95
2023-04-08T16:01:33.239Z,7.35
2023-04-08T16:04:02.484Z,8.30
2023-04-08T16:06:33.519Z,7.32
2023-04-08T16:09:01.980Z,6.70
2023-04-08T16:11:34.765Z,6.95
2023-04-08T16:14:05.299Z,7.32
2023-04-08T16:16:36.061Z,7.22
2023-04-08T16:19:04.910Z,8.48
2023-04-08T16:21:33.540Z,9.05
2023-04-08T16:24:01.983Z,10.35
2023-04-08T16:26:30.173Z,8.43
2023-04-08T16:29:00.581Z,8.93
2023-04-08T16:33:58.182Z,11.98
2023-04-08T16:36:27.098Z,10.95
2023-04-08T16:38:54.970Z,10.52
2023-04-08T16:41:23.148Z,11.77
2023-04-08T16:43:51.680Z,11.18
2023-04-08T16:46:21.961Z,12.60
2023-04-08T16:48:50.068Z,9.75
2023-04-08T16:51:19.331Z,9.68
2023-04-08T16:53:48.761Z,10.52
2023-04-08T16:56:17.424Z,11.65
2023-04-08T16:58:49.196Z,14.18
2023-04-08T17:01:19.012Z,21.75
2023-04-08T17:03:57.924Z,37.08
2023-04-08T17:06:27.625Z,35.20
2023-04-08T17:08:58.116Z,37.03
2023-04-08T17:11:26.737Z,38.55
2023-04-08T17:13:57.338Z,36.35
2023-04-08T17:16:28.409Z,36.85
2023-04-08T17:19:01.154Z,37.33
2023-04-08T17:21:31.107Z,33.25
2023-04-08T17:24:01.746Z,29.38
2023-04-08T17:26:31.253Z,23.00
2023-04-08T17:28:59.326Z,29.60
2023-04-08T17:31:30.363Z,30.73
2023-04-08T17:33:58.496Z,28.10
2023-04-08T17:36:30.432Z,30.38
2023-04-08T17:39:19.995Z,33.60
2023-04-08T17:41:47.941Z,33.05
2023-04-08T17:44:37.550Z,30.73
2023-04-08T17:47:06.674Z,30.67
2023-04-08T17:49:38.672Z,27.50
2023-04-08T17:52:10.383Z,21.88
2023-04-08T17:54:38.572Z,24.45
2023-04-08T17:57:06.768Z,32.55
2023-04-08T17:59:35.575Z,37.00
2023-04-08T18:02:10.040Z,43.00
2023-04-08T18:04:39.563Z,44.78
2023-04-08T18:07:07.719Z,40.40
2023-04-08T18:09:36.424Z,39.28
2023-04-08T18:12:06.523Z,36.90
2023-04-08T18:14:36.138Z,33.92
2023-04-08T18:17:09.592Z,33.85
2023-04-08T18:19:38.849Z,33.00
2023-04-08T18:22:11.045Z,32.53
2023-04-08T18:24:43.696Z,32.05
2023-04-08T18:27:17.350Z,29.02
2023-04-08T18:29:49.264Z,18.05
2023-04-08T18:32:21.861Z,16.58
2023-04-08T18:34:54.691Z,14.35
2023-04-08T18:38:01.311Z,12.50
2023-04-08T18:40:34.802Z,11.50
2023-04-08T18:43:08.477Z,11.65
2023-04-08T18:45:36.825Z,11.43
2023-04-08T18:48:05.131Z,11.52
2023-04-08T18:50:37.219Z,11.18
2023-04-08T18:53:08.362Z,11.15
2023-04-08T18:55:48.989Z,12.02
2023-04-08T18:58:18.366Z,13.25
2023-04-08T19:00:48.181Z,14.25
2023-04-08T19:03:18.786Z,14.90
2023-04-08T19:05:49.353Z,14.40
2023-04-08T19:08:31.772Z,14.27
2023-04-08T19:11:07.293Z,14.32
2023-04-08T19:13:47.735Z,15.05
2023-04-08T19:16:17.641Z,14.15
2023-04-08T19:18:49.007Z,15.70
2023-04-08T19:21:18.644Z,16.40
2023-04-08T19:23:59.664Z,15.35
2023-04-08T19:26:28.564Z,15.63
2023-04-08T19:29:03.255Z,16.15
2023-04-08T19:31:35.262Z,15.25
2023-04-08T19:34:03.447Z,14.82
2023-04-08T19:36:36.297Z,15.60
2023-04-08T19:39:06.561Z,16.52
2023-04-08T19:44:21.842Z,14.32
2023-04-08T19:46:52.228Z,15.70
2023-04-08T19:49:27.374Z,13.48
2023-04-08T19:51:56.112Z,13.90
2023-04-08T19:54:24.791Z,13.10
2023-04-08T19:56:53.965Z,13.60
2023-04-08T19:59:25.495Z,13.00
2023-04-08T20:01:56.612Z,12.45
2023-04-08T20:04:26.840Z,13.13
2023-04-08T20:06:56.632Z,14.15
2023-04-08T20:09:26.515Z,15.02
2023-04-08T20:11:54.494Z,14.68
2023-04-08T20:14:27.977Z,15.05
2023-04-08T20:16:59.438Z,14.32
2023-04-08T20:19:29.685Z,14.85
2023-04-08T20:21:58.933Z,18.40
2023-04-08T20:24:39.997Z,15.95
2023-04-08T20:27:18.720Z,17.05
2023-04-08T20:29:47.609Z,15.18
2023-04-08T20:32:17.321Z,18.45
2023-04-08T20:34:50.721Z,19.33
2023-04-08T20:37:20.206Z,20.00
2023-04-08T20:40:08.193Z,21.00
2023-04-08T20:42:36.590Z,20.88
2023-04-08T20:45:05.085Z,23.85
2023-04-08T20:47:33.859Z,24.63
2023-04-08T20:50:04.941Z,23.55
2023-04-08T20:52:36.517Z,24.15
2023-04-08T20:55:06.777Z,30.05
2023-04-08T20:57:37.209Z,30.85
2023-04-08T21:00:17.510Z,30.23
2023-04-08T21:02:48.399Z,29.48
2023-04-08T21:05:22.304Z,29.42
2023-04-08T21:07:51.913Z,29.67
2023-04-08T21:10:20.166Z,27.90
2023-04-08T21:12:48.349Z,31.33
2023-04-08T21:15:16.642Z,31.02
2023-04-08T21:22:00.677Z,33.60
2023-04-08T21:24:36.855Z,38.30
2023-04-08T21:27:06.044Z,36.55
2023-04-08T21:29:34.870Z,35.17
2023-04-08T21:32:02.972Z,35.35
2023-04-08T21:34:31.910Z,36.88
2023-04-08T21:37:00.168Z,38.50
2023-04-08T21:39:30.439Z,38.60
2023-04-08T21:41:58.708Z,38.05
2023-04-08T21:44:26.940Z,39.38
2023-04-08T21:46:55.121Z,41.15
2023-04-08T21:49:23.096Z,41.15
2023-04-08T21:51:51.746Z,41.90
2023-04-08T21:54:19.618Z,43.42
2023-04-08T21:56:48.003Z,44.13
2023-04-08T21:59:16.130Z,43.58
2023-04-08T22:01:45.997Z,44.25
2023-04-08T22:04:14.526Z,45.05
2023-04-08T22:06:42.854Z,45.25
2023-04-08T22:09:14.477Z,45.13
2023-04-08T22:11:43.267Z,46.55
2023-04-08T22:14:12.897Z,48.80
2023-04-08T22:16:44.179Z,47.17
2023-04-08T22:19:15.953Z,48.45
2023-04-08T22:21:43.985Z,51.40
2023-04-08T22:24:12.910Z,49.97
2023-04-08T22:26:41.053Z,49.97
2023-04-08T22:29:09.768Z,51.30
2023-04-08T22:31:38.827Z,49.90
2023-04-08T22:34:07.666Z,50.60
2023-04-08T22:36:35.884Z,50.58
2023-04-08T22:39:04.224Z,48.90
2023-04-08T22:41:32.773Z,48.10
2023-04-08T22:44:00.781Z,50.05
2023-04-08T22:46:29.486Z,45.50
2023-04-08T22:48:57.341Z,43.80
2023-04-08T22:51:26.158Z,43.58
2023-04-08T22:53:54.778Z,44.20
2023-04-08T22:56:23.357Z,41.92
2023-04-08T22:58:52.866Z,40.97
2023-04-08T23:01:29.937Z,42.05
2023-04-08T23:03:58.912Z,43.22
2023-04-08T23:06:28.942Z,42.60
2023-04-08T23:08:59.922Z,43.40
2023-04-08T23:11:29.091Z,45.25
2023-04-08T23:13:57.144Z,43.85
2023-04-08T23:16:25.634Z,44.47
2023-04-08T23:18:54.281Z,42.88
2023-04-08T23:21:26.270Z,44.55
2023-04-08T23:23:54.671Z,39.58
2023-04-08T23:26:23.132Z,41.08
2023-04-08T23:28:53.095Z,41.50
2023-04-08T23:31:22.283Z,40.78
2023-04-08T23:33:51.438Z,40.15
2023-04-08T23:36:20.644Z,41.80
2023-04-08T23:38:49.671Z,37.63
2023-04-08T23:41:17.887Z,34.72
2023-04-08T23:43:46.929Z,33.40
2023-04-08T23:46:15.222Z,32.38
2023-04-08T23:48:50.826Z,34.28
2023-04-08T23:51:18.963Z,36.45
2023-04-08T23:53:46.878Z,36.85
2023-04-08T23:56:15.843Z,32.78
2023-04-08T23:58:44.258Z,33.38
